• Join FlightAware (Why Join?)
  • Login
  • US Flag 
12:15AM EDT


 

Airport Tracker/Info


-or-


 

Live Flight TrackerFlight Track Log ✈ ASQ5678 ✈ 19-Aug-2013 ✈ KLFT - KIAH

Flight Track Log - Related Links

Times and Time Zones

All times are in EDT time to prevent confusion due to time zone crossing. See the ASQ5678 flight status page for this flight to view local times or setup timezone preferences in your user account.

Time Position Orientation Groundspeed Altitude Reporting Facility
EDT Latitude Longitude Course Direction KTS MPH feet Rate Location/Type
03:15PM 29.9906 -92.2699 231° Southwest  Level FlightAware Approximate
03:15PM 30.1642 -92.1444 232° Southwest 266 306 7,900  Level Houston Center
03:16PM 29.9384 -92.3430 231° Southwest  Level FlightAware Approximate
03:16PM 30.1136 -92.2122 229° Southwest 275 316 8,700  Level Houston Center
03:17PM 29.8962 -92.4215 227° Southwest  Level FlightAware Approximate
03:17PM 30.0625 -92.2822 230° Southwest 282 325 10,300  Level Houston Center
03:18PM 29.8379 -92.4943 227° Southwest  Level FlightAware Approximate
03:18PM 30.0092 -92.3572 231° Southwest 294 338 11,400  Level Houston Center
03:19PM 29.7857 -92.5731 235° Southwest  Level FlightAware Approximate
03:19PM 29.9344 -92.4600 230° Southwest 335 386 12,000  Level Houston Center
03:20PM 29.8836 -92.5639 241° Southwest 371 427 11,900  Descending Houston Center
03:21PM 29.8617 -92.6769 257° West 364 419 12,000  Climbing Houston Center
03:22PM 29.8408 -92.7911 258° West 363 418 11,900 -60 Descending Houston Center
03:23PM 29.8186 -92.9056 257° West 364 419 11,900  Level Houston Center
03:24PM 29.7964 -93.0203 257° West 365 420 12,000  Climbing Houston Center
03:25PM 29.7742 -93.1356 258° West 367 422 12,000  Level Houston Center
03:26PM 29.7469 -93.2756 257° West 371 427 12,000  Level Houston Center
03:27PM 29.7228 -93.3958 257° West 384 442 12,000 -60 Level Houston Center
03:28PM 29.6997 -93.5153 257° West 382 440 11,900 -60 Descending Houston Center
03:29PM 29.6761 -93.6342 257° West 381 438 11,900  Level Houston Center
03:30PM 29.6528 -93.7517 257° West 376 433 11,900  Level Houston Center
03:31PM 29.6289 -93.8706 257° West 380 437 11,900  Level Houston Center
03:32PM 29.6053 -93.9881 257° West 379 436 12,000  Climbing Houston Center
03:33PM 29.5756 -94.1319 257° West 384 442 12,000  Level Houston Center
03:34PM 29.5581 -94.2242 258° West 384 442 12,000  Level Houston Center
03:35PM 29.5397 -94.3347 259° West 384 442 12,000 -120 Level Houston Center
03:36PM 29.5789 -94.4547 291° West 384 442 11,800 -660 Descending Houston Center
03:37PM 29.6197 -94.5506 296° West 385 443 10,800 -900 Descending Houston Center
03:37PM 29.6369 -94.5872 298° West 382 440 10,500 -960 Descending Houston Center
03:39PM 29.6817 -94.6936 296° West 311 358 9,300 -1,440 Descending Houston Center
03:39PM 29.7067 -94.7536 296° West 288 331 8,100 -1,740 Descending Houston Center
03:40PM 29.7339 -94.8175 296° West 275 316 6,800 -1,440 Descending Houston Center
03:41PM 29.7500 -94.8525 298° West 277 319 6,100 -720 Descending Houston Center
03:41PM 29.7692 -94.9022 294° West 262 302 6,000 -120 Descending Houston Center
03:42PM 29.7822 -94.9275 301° West 266 306 6,000  Level Houston Center
03:42PM 29.8042 -94.9819 295° West 274 315 6,000  Level Houston Center
03:43PM 29.8144 -95.0056 297° West 270 311 6,000  Level Houston Center
03:43PM 29.8367 -95.0600 295° West 269 310 6,000  Level Houston Center
03:44PM 29.8528 -95.0981 296° West 271 312 6,000  Level Houston Center
03:44PM 29.8744 -95.1492 296° West 278 320 6,000  Level Houston Center
03:45PM 29.8981 -95.2236 290° West 271 312 6,000  Level Houston Center
03:46PM 29.9000 -95.2589 274° West 270 311 6,000  Level Houston Center
03:47PM 29.9000 -95.3403 270° West 259 298 6,000  Level Houston Center
03:48PM 29.9011 -95.4300 271° West 237 273 6,000 -360 Level Houston Center
03:49PM 29.9006 -95.5044 270° West 237 273 5,300 -1,020 Descending Houston Center
03:50PM 29.9014 -95.5789 271° West 232 267 4,000 -660 Descending Houston Center
03:51PM 29.9114 -95.6489 279° West 234 269 4,000  Level Houston Center
03:52PM 29.9661 -95.6231 22° Northeast 233 268 4,000 -60 Level Houston Center
03:53PM 29.9919 -95.5639 63° Northeast 227 261 3,900 -780 Descending Houston Center
03:54PM 29.9933 -95.4814 89° East 220 253 2,400 -1,260 Descending Houston Center
03:55PM 29.9944 -95.4253 89° East 199 229 1,300 -840 Descending Houston Center
03:56PM 29.9939 -95.3828 91° East 159 183 700 -420 Descending Houston Center
03:57PM 29.9958 -95.3386 87° East 155 178 500 -240 Descending Houston Center